sensor_id;sensor_type;location;lat;lon;timestamp;P1;durP1;ratioP1;P2;durP2;ratioP2
29362;SDS011;16349;53.672;10.014;2023-04-08T00:00:27;16.73;;;8.77;;
29362;SDS011;16349;53.672;10.014;2023-04-08T00:02:54;13.00;;;8.17;;
29362;SDS011;16349;53.672;10.014;2023-04-08T00:05:21;14.67;;;7.87;;
29362;SDS011;16349;53.672;10.014;2023-04-08T00:07:48;13.47;;;8.73;;
29362;SDS011;16349;53.672;10.014;2023-04-08T00:10:15;13.30;;;8.30;;
29362;SDS011;16349;53.672;10.014;2023-04-08T00:12:42;10.97;;;8.37;;
29362;SDS011;16349;53.672;10.014;2023-04-08T00:15:10;12.93;;;8.83;;
29362;SDS011;16349;53.672;10.014;2023-04-08T00:17:37;14.87;;;8.57;;
29362;SDS011;16349;53.672;10.014;2023-04-08T00:20:05;13.77;;;8.67;;
29362;SDS011;16349;53.672;10.014;2023-04-08T00:22:33;14.73;;;8.10;;
29362;SDS011;16349;53.672;10.014;2023-04-08T00:25:00;9.97;;;7.40;;
29362;SDS011;16349;53.672;10.014;2023-04-08T00:27:31;12.30;;;8.47;;
29362;SDS011;16349;53.672;10.014;2023-04-08T00:29:58;14.87;;;7.90;;
29362;SDS011;16349;53.672;10.014;2023-04-08T00:32:27;11.13;;;7.87;;
29362;SDS011;16349;53.672;10.014;2023-04-08T00:34:54;10.90;;;7.83;;
29362;SDS011;16349;53.672;10.014;2023-04-08T00:37:21;13.53;;;7.67;;
29362;SDS011;16349;53.672;10.014;2023-04-08T00:39:49;11.67;;;7.63;;
29362;SDS011;16349;53.672;10.014;2023-04-08T00:42:18;12.23;;;7.43;;
29362;SDS011;16349;53.672;10.014;2023-04-08T00:44:46;10.03;;;7.43;;
29362;SDS011;16349;53.672;10.014;2023-04-08T00:47:13;15.07;;;8.13;;
29362;SDS011;16349;53.672;10.014;2023-04-08T00:49:41;13.70;;;7.53;;
29362;SDS011;16349;53.672;10.014;2023-04-08T00:52:09;13.87;;;8.00;;
29362;SDS011;16349;53.672;10.014;2023-04-08T00:54:36;12.87;;;7.23;;
29362;SDS011;16349;53.672;10.014;2023-04-08T00:57:04;11.03;;;7.43;;
29362;SDS011;16349;53.672;10.014;2023-04-08T00:59:32;12.47;;;8.73;;
29362;SDS011;16349;53.672;10.014;2023-04-08T01:02:02;10.80;;;7.57;;
29362;SDS011;16349;53.672;10.014;2023-04-08T01:04:39;12.03;;;8.53;;
29362;SDS011;16349;53.672;10.014;2023-04-08T01:07:19;16.10;;;8.60;;
29362;SDS011;16349;53.672;10.014;2023-04-08T01:09:50;14.83;;;8.67;;
29362;SDS011;16349;53.672;10.014;2023-04-08T01:12:20;15.03;;;8.93;;
29362;SDS011;16349;53.672;10.014;2023-04-08T01:14:52;16.03;;;8.33;;
29362;SDS011;16349;53.672;10.014;2023-04-08T01:17:26;13.00;;;8.63;;
29362;SDS011;16349;53.672;10.014;2023-04-08T01:19:56;13.20;;;8.23;;
29362;SDS011;16349;53.672;10.014;2023-04-08T01:22:26;12.30;;;8.20;;
29362;SDS011;16349;53.672;10.014;2023-04-08T01:25:00;12.73;;;8.60;;
29362;SDS011;16349;53.672;10.014;2023-04-08T01:27:32;11.00;;;8.17;;
29362;SDS011;16349;53.672;10.014;2023-04-08T01:30:01;14.67;;;8.70;;
29362;SDS011;16349;53.672;10.014;2023-04-08T01:32:30;13.67;;;9.43;;
29362;SDS011;16349;53.672;10.014;2023-04-08T01:34:59;15.20;;;8.97;;
29362;SDS011;16349;53.672;10.014;2023-04-08T01:37:27;13.83;;;8.63;;
29362;SDS011;16349;53.672;10.014;2023-04-08T01:39:55;12.60;;;8.97;;
29362;SDS011;16349;53.672;10.014;2023-04-08T01:42:24;13.50;;;8.87;;
29362;SDS011;16349;53.672;10.014;2023-04-08T01:44:55;13.13;;;8.13;;
29362;SDS011;16349;53.672;10.014;2023-04-08T01:47:23;12.53;;;8.37;;
29362;SDS011;16349;53.672;10.014;2023-04-08T01:49:51;11.80;;;8.10;;
29362;SDS011;16349;53.672;10.014;2023-04-08T01:52:19;10.73;;;8.03;;
29362;SDS011;16349;53.672;10.014;2023-04-08T01:54:47;11.73;;;8.57;;
29362;SDS011;16349;53.672;10.014;2023-04-08T01:57:16;10.80;;;7.37;;
29362;SDS011;16349;53.672;10.014;2023-04-08T01:59:49;12.43;;;7.93;;
29362;SDS011;16349;53.672;10.014;2023-04-08T02:02:19;11.07;;;8.60;;
29362;SDS011;16349;53.672;10.014;2023-04-08T02:04:50;11.47;;;8.23;;
29362;SDS011;16349;53.672;10.014;2023-04-08T02:07:16;12.77;;;7.80;;
29362;SDS011;16349;53.672;10.014;2023-04-08T02:09:44;11.30;;;7.60;;
29362;SDS011;16349;53.672;10.014;2023-04-08T02:12:11;16.83;;;8.60;;
29362;SDS011;16349;53.672;10.014;2023-04-08T02:14:37;13.17;;;8.77;;
29362;SDS011;16349;53.672;10.014;2023-04-08T02:17:08;12.53;;;8.07;;
29362;SDS011;16349;53.672;10.014;2023-04-08T02:19:39;12.10;;;7.83;;
29362;SDS011;16349;53.672;10.014;2023-04-08T02:22:11;13.90;;;8.13;;
29362;SDS011;16349;53.672;10.014;2023-04-08T02:24:44;10.03;;;7.93;;
29362;SDS011;16349;53.672;10.014;2023-04-08T02:27:12;11.67;;;8.10;;
29362;SDS011;16349;53.672;10.014;2023-04-08T02:29:42;12.60;;;8.70;;
29362;SDS011;16349;53.672;10.014;2023-04-08T02:32:10;13.80;;;8.27;;
29362;SDS011;16349;53.672;10.014;2023-04-08T02:34:39;12.10;;;8.03;;
29362;SDS011;16349;53.672;10.014;2023-04-08T02:37:08;12.37;;;8.07;;
29362;SDS011;16349;53.672;10.014;2023-04-08T02:39:35;11.37;;;8.07;;
29362;SDS011;16349;53.672;10.014;2023-04-08T02:42:02;11.93;;;7.87;;
29362;SDS011;16349;53.672;10.014;2023-04-08T02:44:30;12.70;;;8.60;;
29362;SDS011;16349;53.672;10.014;2023-04-08T02:47:01;12.40;;;8.23;;
29362;SDS011;16349;53.672;10.014;2023-04-08T02:49:28;12.90;;;9.10;;
29362;SDS011;16349;53.672;10.014;2023-04-08T02:51:57;13.50;;;9.17;;
29362;SDS011;16349;53.672;10.014;2023-04-08T02:54:23;14.77;;;8.67;;
29362;SDS011;16349;53.672;10.014;2023-04-08T02:56:51;13.53;;;8.90;;
29362;SDS011;16349;53.672;10.014;2023-04-08T02:59:17;13.63;;;8.73;;
29362;SDS011;16349;53.672;10.014;2023-04-08T03:01:44;11.53;;;8.50;;
29362;SDS011;16349;53.672;10.014;2023-04-08T03:04:11;13.70;;;9.40;;
29362;SDS011;16349;53.672;10.014;2023-04-08T03:06:38;13.87;;;9.40;;
29362;SDS011;16349;53.672;10.014;2023-04-08T03:09:06;19.07;;;9.30;;
29362;SDS011;16349;53.672;10.014;2023-04-08T03:11:32;13.37;;;8.60;;
29362;SDS011;16349;53.672;10.014;2023-04-08T03:14:00;14.93;;;9.07;;
29362;SDS011;16349;53.672;10.014;2023-04-08T03:16:26;14.90;;;9.60;;
29362;SDS011;16349;53.672;10.014;2023-04-08T03:18:54;13.37;;;9.77;;
29362;SDS011;16349;53.672;10.014;2023-04-08T03:21:20;14.03;;;10.07;;
29362;SDS011;16349;53.672;10.014;2023-04-08T03:23:51;16.27;;;10.23;;
29362;SDS011;16349;53.672;10.014;2023-04-08T03:26:19;15.20;;;10.20;;
29362;SDS011;16349;53.672;10.014;2023-04-08T03:28:46;15.23;;;9.93;;
29362;SDS011;16349;53.672;10.014;2023-04-08T03:31:13;15.50;;;10.50;;
29362;SDS011;16349;53.672;10.014;2023-04-08T03:33:40;18.10;;;10.07;;
29362;SDS011;16349;53.672;10.014;2023-04-08T03:36:07;18.60;;;11.40;;
29362;SDS011;16349;53.672;10.014;2023-04-08T03:38:34;14.27;;;10.43;;
29362;SDS011;16349;53.672;10.014;2023-04-08T03:41:01;16.87;;;10.70;;
29362;SDS011;16349;53.672;10.014;2023-04-08T03:43:29;17.03;;;11.03;;
29362;SDS011;16349;53.672;10.014;2023-04-08T03:45:57;15.87;;;11.93;;
29362;SDS011;16349;53.672;10.014;2023-04-08T03:48:23;16.50;;;11.33;;
29362;SDS011;16349;53.672;10.014;2023-04-08T03:50:51;17.37;;;11.80;;
29362;SDS011;16349;53.672;10.014;2023-04-08T03:53:17;23.73;;;12.47;;
29362;SDS011;16349;53.672;10.014;2023-04-08T03:55:44;17.10;;;12.03;;
29362;SDS011;16349;53.672;10.014;2023-04-08T03:58:15;17.60;;;12.13;;
29362;SDS011;16349;53.672;10.014;2023-04-08T04:00:43;20.63;;;12.83;;
29362;SDS011;16349;53.672;10.014;2023-04-08T04:03:10;20.67;;;12.80;;
29362;SDS011;16349;53.672;10.014;2023-04-08T04:05:37;21.23;;;12.03;;
29362;SDS011;16349;53.672;10.014;2023-04-08T04:08:04;21.30;;;12.17;;
29362;SDS011;16349;53.672;10.014;2023-04-08T04:10:31;17.73;;;11.90;;
29362;SDS011;16349;53.672;10.014;2023-04-08T04:12:58;21.47;;;12.37;;
29362;SDS011;16349;53.672;10.014;2023-04-08T04:15:25;20.97;;;11.97;;
29362;SDS011;16349;53.672;10.014;2023-04-08T04:17:54;24.57;;;11.33;;
29362;SDS011;16349;53.672;10.014;2023-04-08T04:20:21;21.57;;;12.30;;
29362;SDS011;16349;53.672;10.014;2023-04-08T04:22:50;19.27;;;10.80;;
29362;SDS011;16349;53.672;10.014;2023-04-08T04:25:17;19.33;;;10.73;;
29362;SDS011;16349;53.672;10.014;2023-04-08T04:27:44;19.23;;;11.53;;
29362;SDS011;16349;53.672;10.014;2023-04-08T04:30:11;18.23;;;10.60;;
29362;SDS011;16349;53.672;10.014;2023-04-08T04:32:39;20.07;;;11.27;;
29362;SDS011;16349;53.672;10.014;2023-04-08T04:35:11;20.63;;;11.47;;
29362;SDS011;16349;53.672;10.014;2023-04-08T04:37:38;24.87;;;12.57;;
29362;SDS011;16349;53.672;10.014;2023-04-08T04:40:06;24.03;;;12.17;;
29362;SDS011;16349;53.672;10.014;2023-04-08T04:42:33;23.60;;;12.83;;
29362;SDS011;16349;53.672;10.014;2023-04-08T04:45:00;21.30;;;12.07;;
29362;SDS011;16349;53.672;10.014;2023-04-08T04:47:27;24.17;;;14.37;;
29362;SDS011;16349;53.672;10.014;2023-04-08T04:49:57;17.63;;;11.97;;
29362;SDS011;16349;53.672;10.014;2023-04-08T04:52:25;21.87;;;12.70;;
29362;SDS011;16349;53.672;10.014;2023-04-08T04:54:52;20.97;;;13.03;;
29362;SDS011;16349;53.672;10.014;2023-04-08T04:57:19;25.00;;;12.40;;
29362;SDS011;16349;53.672;10.014;2023-04-08T04:59:46;24.90;;;13.43;;
29362;SDS011;16349;53.672;10.014;2023-04-08T05:02:13;26.43;;;11.80;;
29362;SDS011;16349;53.672;10.014;2023-04-08T05:04:40;20.87;;;12.03;;
29362;SDS011;16349;53.672;10.014;2023-04-08T05:07:08;21.80;;;12.43;;
29362;SDS011;16349;53.672;10.014;2023-04-08T05:09:36;27.00;;;14.53;;
29362;SDS011;16349;53.672;10.014;2023-04-08T05:12:03;25.30;;;14.20;;
29362;SDS011;16349;53.672;10.014;2023-04-08T05:14:31;27.40;;;15.07;;
29362;SDS011;16349;53.672;10.014;2023-04-08T05:16:58;26.87;;;15.13;;
29362;SDS011;16349;53.672;10.014;2023-04-08T05:19:25;25.17;;;14.60;;
29362;SDS011;16349;53.672;10.014;2023-04-08T05:21:51;28.43;;;15.37;;
29362;SDS011;16349;53.672;10.014;2023-04-08T05:24:18;27.40;;;16.33;;
29362;SDS011;16349;53.672;10.014;2023-04-08T05:26:46;25.00;;;14.90;;
29362;SDS011;16349;53.672;10.014;2023-04-08T05:29:16;25.60;;;14.43;;
29362;SDS011;16349;53.672;10.014;2023-04-08T05:31:43;28.67;;;15.60;;
29362;SDS011;16349;53.672;10.014;2023-04-08T05:34:10;28.50;;;14.93;;
29362;SDS011;16349;53.672;10.014;2023-04-08T05:36:37;23.30;;;14.03;;
29362;SDS011;16349;53.672;10.014;2023-04-08T05:39:04;24.87;;;12.90;;
29362;SDS011;16349;53.672;10.014;2023-04-08T05:41:32;26.97;;;13.37;;
29362;SDS011;16349;53.672;10.014;2023-04-08T05:44:00;23.03;;;13.90;;
29362;SDS011;16349;53.672;10.014;2023-04-08T05:46:27;18.40;;;11.73;;
29362;SDS011;16349;53.672;10.014;2023-04-08T05:48:53;24.63;;;13.30;;
29362;SDS011;16349;53.672;10.014;2023-04-08T05:51:21;24.60;;;13.60;;
29362;SDS011;16349;53.672;10.014;2023-04-08T05:53:47;26.17;;;14.20;;
29362;SDS011;16349;53.672;10.014;2023-04-08T05:56:14;31.07;;;15.07;;
29362;SDS011;16349;53.672;10.014;2023-04-08T05:58:40;30.20;;;14.47;;
29362;SDS011;16349;53.672;10.014;2023-04-08T06:01:09;24.60;;;13.80;;
29362;SDS011;16349;53.672;10.014;2023-04-08T06:03:36;29.00;;;14.70;;
29362;SDS011;16349;53.672;10.014;2023-04-08T06:06:02;22.30;;;14.07;;
29362;SDS011;16349;53.672;10.014;2023-04-08T06:08:29;24.87;;;13.97;;
29362;SDS011;16349;53.672;10.014;2023-04-08T06:10:56;27.70;;;13.60;;
29362;SDS011;16349;53.672;10.014;2023-04-08T06:13:23;29.47;;;14.20;;
29362;SDS011;16349;53.672;10.014;2023-04-08T06:15:50;27.47;;;14.03;;
29362;SDS011;16349;53.672;10.014;2023-04-08T06:18:19;26.47;;;13.60;;
29362;SDS011;16349;53.672;10.014;2023-04-08T06:20:45;26.23;;;12.90;;
29362;SDS011;16349;53.672;10.014;2023-04-08T06:23:12;25.57;;;12.53;;
29362;SDS011;16349;53.672;10.014;2023-04-08T06:25:39;21.93;;;12.80;;
29362;SDS011;16349;53.672;10.014;2023-04-08T06:28:06;20.33;;;11.53;;
29362;SDS011;16349;53.672;10.014;2023-04-08T06:30:32;18.83;;;12.33;;
29362;SDS011;16349;53.672;10.014;2023-04-08T06:32:59;21.20;;;11.17;;
29362;SDS011;16349;53.672;10.014;2023-04-08T06:35:27;18.10;;;11.10;;
29362;SDS011;16349;53.672;10.014;2023-04-08T06:37:55;16.73;;;10.33;;
29362;SDS011;16349;53.672;10.014;2023-04-08T06:40:21;17.97;;;10.20;;
29362;SDS011;16349;53.672;10.014;2023-04-08T06:42:48;17.27;;;10.10;;
29362;SDS011;16349;53.672;10.014;2023-04-08T06:45:21;14.97;;;9.60;;
29362;SDS011;16349;53.672;10.014;2023-04-08T06:47:48;26.13;;;11.20;;
29362;SDS011;16349;53.672;10.014;2023-04-08T06:50:14;16.47;;;10.03;;
29362;SDS011;16349;53.672;10.014;2023-04-08T06:52:42;22.63;;;12.03;;
29362;SDS011;16349;53.672;10.014;2023-04-08T06:55:10;18.70;;;11.13;;
29362;SDS011;16349;53.672;10.014;2023-04-08T06:57:36;22.57;;;11.30;;
29362;SDS011;16349;53.672;10.014;2023-04-08T07:00:04;17.40;;;11.00;;
29362;SDS011;16349;53.672;10.014;2023-04-08T07:02:32;20.30;;;11.10;;
29362;SDS011;16349;53.672;10.014;2023-04-08T07:04:58;16.63;;;10.83;;
29362;SDS011;16349;53.672;10.014;2023-04-08T07:07:26;19.13;;;11.07;;
29362;SDS011;16349;53.672;10.014;2023-04-08T07:09:53;22.40;;;10.80;;
29362;SDS011;16349;53.672;10.014;2023-04-08T07:12:20;17.60;;;10.70;;
29362;SDS011;16349;53.672;10.014;2023-04-08T07:14:48;20.63;;;11.20;;
29362;SDS011;16349;53.672;10.014;2023-04-08T07:17:14;19.77;;;11.47;;
29362;SDS011;16349;53.672;10.014;2023-04-08T07:19:41;17.27;;;10.07;;
29362;SDS011;16349;53.672;10.014;2023-04-08T07:22:09;18.67;;;10.93;;
29362;SDS011;16349;53.672;10.014;2023-04-08T07:24:36;16.53;;;9.80;;
29362;SDS011;16349;53.672;10.014;2023-04-08T07:27:03;15.23;;;9.83;;
29362;SDS011;16349;53.672;10.014;2023-04-08T07:29:30;18.20;;;9.67;;
29362;SDS011;16349;53.672;10.014;2023-04-08T07:31:58;15.67;;;9.83;;
29362;SDS011;16349;53.672;10.014;2023-04-08T07:34:25;15.40;;;9.73;;
29362;SDS011;16349;53.672;10.014;2023-04-08T07:36:52;17.23;;;9.47;;
29362;SDS011;16349;53.672;10.014;2023-04-08T07:39:19;16.57;;;9.67;;
29362;SDS011;16349;53.672;10.014;2023-04-08T07:41:46;17.87;;;9.13;;
29362;SDS011;16349;53.672;10.014;2023-04-08T07:44:15;16.93;;;9.87;;
29362;SDS011;16349;53.672;10.014;2023-04-08T07:46:43;13.93;;;9.63;;
29362;SDS011;16349;53.672;10.014;2023-04-08T07:49:15;19.03;;;10.53;;
29362;SDS011;16349;53.672;10.014;2023-04-08T07:51:42;18.00;;;10.13;;
29362;SDS011;16349;53.672;10.014;2023-04-08T07:54:09;13.93;;;9.43;;
29362;SDS011;16349;53.672;10.014;2023-04-08T07:56:36;17.10;;;10.30;;
29362;SDS011;16349;53.672;10.014;2023-04-08T07:59:05;17.23;;;10.43;;
29362;SDS011;16349;53.672;10.014;2023-04-08T08:01:33;19.17;;;10.13;;
29362;SDS011;16349;53.672;10.014;2023-04-08T08:04:01;20.67;;;11.10;;
29362;SDS011;16349;53.672;10.014;2023-04-08T08:06:29;15.57;;;10.17;;
29362;SDS011;16349;53.672;10.014;2023-04-08T08:08:57;17.43;;;10.57;;
29362;SDS011;16349;53.672;10.014;2023-04-08T08:11:24;18.20;;;10.60;;
29362;SDS011;16349;53.672;10.014;2023-04-08T08:13:52;21.13;;;11.30;;
29362;SDS011;16349;53.672;10.014;2023-04-08T08:16:39;17.43;;;9.90;;
29362;SDS011;16349;53.672;10.014;2023-04-08T08:19:05;13.40;;;8.83;;
29362;SDS011;16349;53.672;10.014;2023-04-08T08:21:34;19.07;;;9.90;;
29362;SDS011;16349;53.672;10.014;2023-04-08T08:24:02;14.97;;;9.73;;
29362;SDS011;16349;53.672;10.014;2023-04-08T08:26:29;17.80;;;9.40;;
29362;SDS011;16349;53.672;10.014;2023-04-08T08:28:57;15.70;;;10.07;;
29362;SDS011;16349;53.672;10.014;2023-04-08T08:31:23;14.67;;;9.77;;
29362;SDS011;16349;53.672;10.014;2023-04-08T08:33:52;14.07;;;9.00;;
29362;SDS011;16349;53.672;10.014;2023-04-08T08:36:19;15.20;;;9.03;;
29362;SDS011;16349;53.672;10.014;2023-04-08T08:38:46;15.53;;;9.33;;
29362;SDS011;16349;53.672;10.014;2023-04-08T08:41:35;17.83;;;10.60;;
29362;SDS011;16349;53.672;10.014;2023-04-08T08:44:04;16.03;;;10.53;;
29362;SDS011;16349;53.672;10.014;2023-04-08T08:46:31;18.97;;;10.30;;
29362;SDS011;16349;53.672;10.014;2023-04-08T08:49:00;15.57;;;11.23;;
29362;SDS011;16349;53.672;10.014;2023-04-08T08:51:27;19.20;;;9.87;;
29362;SDS011;16349;53.672;10.014;2023-04-08T08:53:59;13.57;;;9.63;;
29362;SDS011;16349;53.672;10.014;2023-04-08T08:56:28;16.63;;;9.67;;
29362;SDS011;16349;53.672;10.014;2023-04-08T08:58:55;16.60;;;8.90;;
29362;SDS011;16349;53.672;10.014;2023-04-08T09:01:29;14.53;;;9.87;;
29362;SDS011;16349;53.672;10.014;2023-04-08T09:04:09;14.07;;;8.83;;
29362;SDS011;16349;53.672;10.014;2023-04-08T09:06:38;13.33;;;9.13;;
29362;SDS011;16349;53.672;10.014;2023-04-08T09:09:05;14.60;;;9.23;;
29362;SDS011;16349;53.672;10.014;2023-04-08T09:11:34;16.30;;;9.00;;
29362;SDS011;16349;53.672;10.014;2023-04-08T09:14:02;13.83;;;8.70;;
29362;SDS011;16349;53.672;10.014;2023-04-08T09:16:31;15.03;;;9.90;;
29362;SDS011;16349;53.672;10.014;2023-04-08T09:19:06;12.27;;;9.33;;
29362;SDS011;16349;53.672;10.014;2023-04-08T09:21:36;17.80;;;10.70;;
29362;SDS011;16349;53.672;10.014;2023-04-08T09:24:03;20.57;;;10.33;;
29362;SDS011;16349;53.672;10.014;2023-04-08T09:26:29;15.97;;;10.03;;
29362;SDS011;16349;53.672;10.014;2023-04-08T09:28:57;19.23;;;11.50;;
29362;SDS011;16349;53.672;10.014;2023-04-08T09:31:26;17.50;;;10.93;;
29362;SDS011;16349;53.672;10.014;2023-04-08T09:33:54;19.23;;;11.93;;
29362;SDS011;16349;53.672;10.014;2023-04-08T09:36:23;16.23;;;11.77;;
29362;SDS011;16349;53.672;10.014;2023-04-08T09:38:52;15.03;;;10.37;;
29362;SDS011;16349;53.672;10.014;2023-04-08T09:41:20;20.80;;;12.13;;
29362;SDS011;16349;53.672;10.014;2023-04-08T09:43:48;16.53;;;11.10;;
29362;SDS011;16349;53.672;10.014;2023-04-08T09:46:16;17.00;;;12.03;;
29362;SDS011;16349;53.672;10.014;2023-04-08T09:48:47;18.03;;;10.87;;
29362;SDS011;16349;53.672;10.014;2023-04-08T09:51:17;18.70;;;11.60;;
29362;SDS011;16349;53.672;10.014;2023-04-08T09:53:46;15.47;;;10.97;;
29362;SDS011;16349;53.672;10.014;2023-04-08T09:56:19;16.60;;;11.77;;
29362;SDS011;16349;53.672;10.014;2023-04-08T09:58:50;20.93;;;11.20;;
29362;SDS011;16349;53.672;10.014;2023-04-08T10:01:36;16.17;;;11.80;;
29362;SDS011;16349;53.672;10.014;2023-04-08T10:04:04;18.77;;;12.30;;
29362;SDS011;16349;53.672;10.014;2023-04-08T10:06:34;17.87;;;12.50;;
29362;SDS011;16349;53.672;10.014;2023-04-08T10:09:04;16.47;;;11.60;;
29362;SDS011;16349;53.672;10.014;2023-04-08T10:11:33;14.77;;;10.13;;
29362;SDS011;16349;53.672;10.014;2023-04-08T10:14:00;16.47;;;10.97;;
29362;SDS011;16349;53.672;10.014;2023-04-08T10:16:27;18.10;;;10.97;;
29362;SDS011;16349;53.672;10.014;2023-04-08T10:18:56;13.57;;;10.27;;
29362;SDS011;16349;53.672;10.014;2023-04-08T10:21:35;15.77;;;10.10;;
29362;SDS011;16349;53.672;10.014;2023-04-08T10:24:08;15.67;;;9.87;;
29362;SDS011;16349;53.672;10.014;2023-04-08T10:26:37;16.07;;;10.37;;
29362;SDS011;16349;53.672;10.014;2023-04-08T10:32:03;18.53;;;10.50;;
29362;SDS011;16349;53.672;10.014;2023-04-08T10:34:30;13.83;;;10.13;;
29362;SDS011;16349;53.672;10.014;2023-04-08T10:36:58;16.93;;;10.83;;
29362;SDS011;16349;53.672;10.014;2023-04-08T10:39:27;17.53;;;11.13;;
29362;SDS011;16349;53.672;10.014;2023-04-08T10:41:55;17.77;;;11.00;;
29362;SDS011;16349;53.672;10.014;2023-04-08T10:44:23;16.20;;;10.57;;
29362;SDS011;16349;53.672;10.014;2023-04-08T10:46:52;24.00;;;12.03;;
29362;SDS011;16349;53.672;10.014;2023-04-08T10:49:19;17.43;;;11.47;;
29362;SDS011;16349;53.672;10.014;2023-04-08T10:51:47;19.50;;;12.13;;
29362;SDS011;16349;53.672;10.014;2023-04-08T10:54:15;21.17;;;12.00;;
29362;SDS011;16349;53.672;10.014;2023-04-08T10:56:44;17.97;;;10.93;;
29362;SDS011;16349;53.672;10.014;2023-04-08T10:59:13;19.07;;;11.07;;
29362;SDS011;16349;53.672;10.014;2023-04-08T11:01:41;19.90;;;12.50;;
29362;SDS011;16349;53.672;10.014;2023-04-08T11:04:11;21.27;;;12.20;;
29362;SDS011;16349;53.672;10.014;2023-04-08T11:06:43;16.00;;;12.00;;
29362;SDS011;16349;53.672;10.014;2023-04-08T11:09:12;18.90;;;12.30;;
29362;SDS011;16349;53.672;10.014;2023-04-08T11:11:40;21.80;;;12.87;;
29362;SDS011;16349;53.672;10.014;2023-04-08T11:14:08;16.60;;;11.83;;
29362;SDS011;16349;53.672;10.014;2023-04-08T11:16:36;20.57;;;12.83;;
29362;SDS011;16349;53.672;10.014;2023-04-08T11:19:03;17.47;;;12.30;;
29362;SDS011;16349;53.672;10.014;2023-04-08T11:21:34;19.73;;;11.83;;
29362;SDS011;16349;53.672;10.014;2023-04-08T11:24:06;20.57;;;11.90;;
29362;SDS011;16349;53.672;10.014;2023-04-08T11:26:36;15.03;;;10.43;;
29362;SDS011;16349;53.672;10.014;2023-04-08T11:29:03;14.23;;;10.97;;
29362;SDS011;16349;53.672;10.014;2023-04-08T11:31:33;18.30;;;11.40;;
29362;SDS011;16349;53.672;10.014;2023-04-08T11:34:01;19.30;;;11.13;;
29362;SDS011;16349;53.672;10.014;2023-04-08T11:36:27;17.67;;;11.17;;
29362;SDS011;16349;53.672;10.014;2023-04-08T11:38:55;19.03;;;12.07;;
29362;SDS011;16349;53.672;10.014;2023-04-08T11:41:22;18.93;;;11.43;;
29362;SDS011;16349;53.672;10.014;2023-04-08T11:43:49;17.40;;;11.60;;
29362;SDS011;16349;53.672;10.014;2023-04-08T11:46:17;15.53;;;10.93;;
29362;SDS011;16349;53.672;10.014;2023-04-08T11:48:59;17.50;;;10.60;;
29362;SDS011;16349;53.672;10.014;2023-04-08T11:51:27;16.90;;;11.07;;
29362;SDS011;16349;53.672;10.014;2023-04-08T11:53:55;16.23;;;11.73;;
29362;SDS011;16349;53.672;10.014;2023-04-08T11:56:22;18.57;;;10.93;;
29362;SDS011;16349;53.672;10.014;2023-04-08T11:58:50;17.73;;;11.30;;
29362;SDS011;16349;53.672;10.014;2023-04-08T12:01:18;17.77;;;11.47;;
29362;SDS011;16349;53.672;10.014;2023-04-08T12:03:52;15.73;;;11.37;;
29362;SDS011;16349;53.672;10.014;2023-04-08T12:06:22;18.77;;;11.13;;
29362;SDS011;16349;53.672;10.014;2023-04-08T12:08:51;17.10;;;11.87;;
29362;SDS011;16349;53.672;10.014;2023-04-08T12:11:19;16.57;;;10.80;;
29362;SDS011;16349;53.672;10.014;2023-04-08T12:13:46;16.23;;;11.10;;
29362;SDS011;16349;53.672;10.014;2023-04-08T12:16:15;15.70;;;11.20;;
29362;SDS011;16349;53.672;10.014;2023-04-08T12:18:42;18.33;;;11.23;;
29362;SDS011;16349;53.672;10.014;2023-04-08T12:21:11;19.03;;;11.40;;
29362;SDS011;16349;53.672;10.014;2023-04-08T12:23:39;18.87;;;12.63;;
29362;SDS011;16349;53.672;10.014;2023-04-08T12:26:06;23.07;;;12.13;;
29362;SDS011;16349;53.672;10.014;2023-04-08T12:28:33;15.67;;;11.70;;
29362;SDS011;16349;53.672;10.014;2023-04-08T12:31:01;17.30;;;12.17;;
29362;SDS011;16349;53.672;10.014;2023-04-08T12:33:28;15.07;;;11.40;;
29362;SDS011;16349;53.672;10.014;2023-04-08T12:35:56;15.90;;;11.70;;
29362;SDS011;16349;53.672;10.014;2023-04-08T12:38:23;16.10;;;10.63;;
29362;SDS011;16349;53.672;10.014;2023-04-08T12:40:51;12.87;;;10.50;;
29362;SDS011;16349;53.672;10.014;2023-04-08T12:43:19;13.73;;;10.53;;
29362;SDS011;16349;53.672;10.014;2023-04-08T12:45:46;14.97;;;10.70;;
29362;SDS011;16349;53.672;10.014;2023-04-08T12:48:14;21.20;;;12.93;;
29362;SDS011;16349;53.672;10.014;2023-04-08T12:50:41;17.47;;;11.87;;
29362;SDS011;16349;53.672;10.014;2023-04-08T12:53:08;16.93;;;12.33;;
29362;SDS011;16349;53.672;10.014;2023-04-08T12:55:35;17.20;;;11.67;;
29362;SDS011;16349;53.672;10.014;2023-04-08T12:58:03;19.00;;;12.60;;
29362;SDS011;16349;53.672;10.014;2023-04-08T13:00:31;19.03;;;13.13;;
29362;SDS011;16349;53.672;10.014;2023-04-08T13:02:58;21.03;;;11.40;;
29362;SDS011;16349;53.672;10.014;2023-04-08T13:05:24;17.17;;;11.97;;
29362;SDS011;16349;53.672;10.014;2023-04-08T13:07:52;17.30;;;12.30;;
29362;SDS011;16349;53.672;10.014;2023-04-08T13:10:19;18.47;;;12.40;;
29362;SDS011;16349;53.672;10.014;2023-04-08T13:12:46;16.67;;;11.77;;
29362;SDS011;16349;53.672;10.014;2023-04-08T13:15:14;21.40;;;13.33;;
29362;SDS011;16349;53.672;10.014;2023-04-08T13:17:41;20.80;;;13.37;;
29362;SDS011;16349;53.672;10.014;2023-04-08T13:20:08;22.50;;;15.90;;
29362;SDS011;16349;53.672;10.014;2023-04-08T13:22:35;25.80;;;14.47;;
29362;SDS011;16349;53.672;10.014;2023-04-08T13:25:02;19.07;;;13.93;;
29362;SDS011;16349;53.672;10.014;2023-04-08T13:27:30;19.37;;;13.40;;
29362;SDS011;16349;53.672;10.014;2023-04-08T13:29:57;18.40;;;13.10;;
29362;SDS011;16349;53.672;10.014;2023-04-08T13:32:26;21.60;;;14.33;;
29362;SDS011;16349;53.672;10.014;2023-04-08T13:34:53;19.10;;;13.60;;
29362;SDS011;16349;53.672;10.014;2023-04-08T13:37:21;18.50;;;13.50;;
29362;SDS011;16349;53.672;10.014;2023-04-08T13:39:50;20.53;;;13.17;;
29362;SDS011;16349;53.672;10.014;2023-04-08T13:42:17;21.83;;;13.57;;
29362;SDS011;16349;53.672;10.014;2023-04-08T13:44:44;18.53;;;13.47;;
29362;SDS011;16349;53.672;10.014;2023-04-08T13:47:11;19.20;;;14.43;;
29362;SDS011;16349;53.672;10.014;2023-04-08T13:49:39;21.07;;;15.03;;
29362;SDS011;16349;53.672;10.014;2023-04-08T13:52:06;18.37;;;12.93;;
29362;SDS011;16349;53.672;10.014;2023-04-08T13:54:33;21.23;;;13.93;;
29362;SDS011;16349;53.672;10.014;2023-04-08T13:57:00;20.63;;;14.53;;
29362;SDS011;16349;53.672;10.014;2023-04-08T13:59:27;19.47;;;12.87;;
29362;SDS011;16349;53.672;10.014;2023-04-08T14:01:54;17.87;;;13.50;;
29362;SDS011;16349;53.672;10.014;2023-04-08T14:04:21;18.53;;;12.17;;
29362;SDS011;16349;53.672;10.014;2023-04-08T14:06:50;22.50;;;12.83;;
29362;SDS011;16349;53.672;10.014;2023-04-08T14:09:18;16.93;;;12.37;;
29362;SDS011;16349;53.672;10.014;2023-04-08T14:11:45;17.27;;;12.10;;
29362;SDS011;16349;53.672;10.014;2023-04-08T14:14:12;16.80;;;12.47;;
29362;SDS011;16349;53.672;10.014;2023-04-08T14:16:40;21.37;;;14.10;;
29362;SDS011;16349;53.672;10.014;2023-04-08T14:19:06;21.27;;;13.53;;
29362;SDS011;16349;53.672;10.014;2023-04-08T14:21:34;18.37;;;13.47;;